createdAt,value
2017-06-23T00:02:16.588Z,13.60
2017-06-23T00:04:45.494Z,10.32
2017-06-23T00:07:14.383Z,10.32
2017-06-23T00:09:43.277Z,10.50
2017-06-23T00:12:12.177Z,12.25
2017-06-23T00:14:41.070Z,10.60
2017-06-23T00:17:10.738Z,12.27
2017-06-23T00:19:39.645Z,11.20
2017-06-23T00:22:08.541Z,13.30
2017-06-23T00:24:37.428Z,9.30
2017-06-23T00:27:06.317Z,10.00
2017-06-23T00:29:35.207Z,11.65
2017-06-23T00:32:04.123Z,10.98
2017-06-23T00:34:33.794Z,12.80
2017-06-23T00:37:02.680Z,11.85
2017-06-23T00:39:31.587Z,15.63
2017-06-23T00:42:01.155Z,13.55
2017-06-23T00:44:30.046Z,11.18
2017-06-23T00:46:58.945Z,11.68
2017-06-23T00:49:27.845Z,13.15
2017-06-23T00:51:56.722Z,12.15
2017-06-23T00:54:25.611Z,13.62
2017-06-23T00:56:54.514Z,14.73
2017-06-23T00:59:23.404Z,15.85
2017-06-23T01:01:52.403Z,12.82
2017-06-23T01:04:21.298Z,13.70
2017-06-23T01:06:50.196Z,14.15
2017-06-23T01:09:19.092Z,17.58
2017-06-23T01:11:47.984Z,12.82
2017-06-23T01:14:16.885Z,16.00
2017-06-23T01:16:45.793Z,14.02
2017-06-23T01:19:14.651Z,14.55
2017-06-23T01:21:43.554Z,12.85
2017-06-23T01:24:12.429Z,12.15
2017-06-23T01:26:41.319Z,16.45
2017-06-23T01:29:10.226Z,13.50
2017-06-23T01:31:39.081Z,10.02
2017-06-23T01:34:07.952Z,13.60
2017-06-23T01:36:36.842Z,10.48
2017-06-23T01:39:05.643Z,11.00
2017-06-23T01:41:34.528Z,15.48
2017-06-23T01:44:03.425Z,10.90
2017-06-23T01:46:32.300Z,9.82
2017-06-23T01:49:01.194Z,10.55
2017-06-23T01:51:30.082Z,10.02
2017-06-23T01:53:58.981Z,10.15
2017-06-23T01:56:27.859Z,11.63
2017-06-23T01:58:56.722Z,12.90
2017-06-23T02:01:25.608Z,11.02
2017-06-23T02:03:54.504Z,10.45
2017-06-23T02:06:23.364Z,10.98
2017-06-23T02:08:53.039Z,7.80
2017-06-23T02:11:21.928Z,8.98
2017-06-23T02:13:50.808Z,9.15
2017-06-23T02:16:19.699Z,13.62
2017-06-23T02:18:48.608Z,12.25
2017-06-23T02:21:17.498Z,9.15
2017-06-23T02:23:46.389Z,9.40
2017-06-23T02:26:15.244Z,9.70
2017-06-23T02:28:44.090Z,7.32
2017-06-23T02:31:13.753Z,10.75
2017-06-23T02:33:42.641Z,8.30
2017-06-23T02:36:11.505Z,11.70
2017-06-23T02:38:40.388Z,8.57
2017-06-23T02:41:10.041Z,8.27
2017-06-23T02:43:38.934Z,9.18
2017-06-23T02:46:07.816Z,7.47
2017-06-23T02:48:36.696Z,8.02
2017-06-23T02:51:05.582Z,9.30
2017-06-23T02:53:34.471Z,7.55
2017-06-23T02:56:03.351Z,9.93
2017-06-23T02:58:32.958Z,8.65
2017-06-23T03:01:02.612Z,8.45
2017-06-23T03:03:31.575Z,9.90
2017-06-23T03:06:00.465Z,11.77
2017-06-23T03:08:29.364Z,15.10
2017-06-23T03:10:58.255Z,18.85
2017-06-23T03:13:27.157Z,14.77
2017-06-23T03:15:56.059Z,14.18
2017-06-23T03:18:24.966Z,21.52
2017-06-23T03:20:53.868Z,16.67
2017-06-23T03:23:22.764Z,19.17
2017-06-23T03:25:51.360Z,22.95
2017-06-23T03:28:20.245Z,23.90
2017-06-23T03:30:49.141Z,22.35
2017-06-23T03:33:18.805Z,19.92
2017-06-23T03:35:47.692Z,19.95
2017-06-23T03:38:16.580Z,19.58
2017-06-23T03:40:45.470Z,19.10
2017-06-23T03:43:14.360Z,25.05
2017-06-23T03:45:43.348Z,27.37
2017-06-23T03:48:12.251Z,28.52
2017-06-23T03:50:41.150Z,25.40
2017-06-23T03:53:10.037Z,24.75
2017-06-23T03:55:38.902Z,27.90
2017-06-23T03:58:07.797Z,23.92
2017-06-23T04:00:36.652Z,29.40
2017-06-23T04:03:05.551Z,24.73
2017-06-23T04:05:34.448Z,25.35
2017-06-23T04:08:04.111Z,24.63
2017-06-23T04:10:33.014Z,31.45
2017-06-23T04:13:01.917Z,22.75
2017-06-23T04:15:30.814Z,35.95
2017-06-23T04:17:59.727Z,26.52
2017-06-23T04:20:29.379Z,27.10
2017-06-23T04:22:58.279Z,28.52
2017-06-23T04:25:27.184Z,28.73
2017-06-23T04:27:56.085Z,34.75
2017-06-23T04:30:24.956Z,31.65
2017-06-23T04:32:53.829Z,35.10
2017-06-23T04:35:22.720Z,31.05
2017-06-23T04:37:51.651Z,29.95
2017-06-23T04:40:20.557Z,34.58
2017-06-23T04:42:49.457Z,39.42
2017-06-23T04:45:18.353Z,39.20
2017-06-23T04:47:48.013Z,33.42
2017-06-23T04:50:16.907Z,34.33
2017-06-23T04:52:45.805Z,34.13
2017-06-23T04:55:14.708Z,34.90
2017-06-23T04:57:43.600Z,36.05
2017-06-23T05:00:12.466Z,38.90
2017-06-23T05:02:41.380Z,31.45
2017-06-23T05:05:10.282Z,39.67
2017-06-23T05:07:39.174Z,42.92
2017-06-23T05:10:08.069Z,40.47
2017-06-23T05:12:36.973Z,29.50
2017-06-23T05:15:05.866Z,45.28
2017-06-23T05:17:34.731Z,41.80
2017-06-23T05:20:03.642Z,35.90
2017-06-23T05:22:32.545Z,32.03
2017-06-23T05:25:01.428Z,36.38
2017-06-23T05:27:30.318Z,29.30
2017-06-23T05:29:59.208Z,36.83
2017-06-23T05:32:28.074Z,33.55
2017-06-23T05:34:56.946Z,37.60
2017-06-23T05:37:25.836Z,33.22
2017-06-23T05:39:54.722Z,36.70
2017-06-23T05:42:23.615Z,29.77
2017-06-23T05:44:52.517Z,34.33
2017-06-23T05:47:21.416Z,41.42
2017-06-23T05:49:50.329Z,42.47
2017-06-23T05:52:19.232Z,36.05
2017-06-23T05:54:48.129Z,35.72
2017-06-23T05:57:17.020Z,36.67
2017-06-23T05:59:45.915Z,43.55
2017-06-23T06:02:15.604Z,38.20
2017-06-23T06:04:44.502Z,28.60
2017-06-23T06:07:13.396Z,33.92
2017-06-23T06:09:42.301Z,35.78
2017-06-23T06:12:11.927Z,29.00
2017-06-23T06:14:40.831Z,34.60
2017-06-23T06:17:09.734Z,29.17
2017-06-23T06:19:38.637Z,30.83
2017-06-23T06:22:07.527Z,33.85
2017-06-23T06:24:36.426Z,36.17
2017-06-23T06:27:05.327Z,30.12
2017-06-23T06:29:34.257Z,30.35
2017-06-23T06:32:03.919Z,33.28
2017-06-23T06:34:32.825Z,34.67
2017-06-23T06:37:01.723Z,34.10
2017-06-23T06:39:30.616Z,34.80
2017-06-23T06:41:59.572Z,30.80
2017-06-23T06:44:28.477Z,30.58
2017-06-23T06:46:57.363Z,30.98
2017-06-23T06:49:26.260Z,29.17
2017-06-23T06:51:55.122Z,28.50
2017-06-23T06:54:24.037Z,36.42
2017-06-23T06:56:52.941Z,26.40
2017-06-23T06:59:21.846Z,27.90
2017-06-23T07:01:50.741Z,29.08
2017-06-23T07:04:19.640Z,32.22
2017-06-23T07:06:48.538Z,35.15
2017-06-23T07:09:17.434Z,33.13
2017-06-23T07:11:46.318Z,31.40
2017-06-23T07:14:15.216Z,30.27
2017-06-23T07:16:44.118Z,25.50
2017-06-23T07:19:13.755Z,37.80
2017-06-23T07:21:42.655Z,29.83
2017-06-23T07:24:11.653Z,27.23
2017-06-23T07:26:40.553Z,24.95
2017-06-23T07:29:09.445Z,26.70
2017-06-23T07:31:38.350Z,29.05
2017-06-23T07:34:07.261Z,29.20
2017-06-23T07:36:36.165Z,29.60
2017-06-23T07:39:04.374Z,28.95
2017-06-23T07:41:33.275Z,24.98
2017-06-23T07:44:02.176Z,36.72
2017-06-23T07:46:31.069Z,28.23
2017-06-23T07:48:59.964Z,29.42
2017-06-23T07:51:28.856Z,33.50
2017-06-23T07:53:57.841Z,29.65
2017-06-23T07:56:26.742Z,30.35
2017-06-23T07:58:55.640Z,26.58
2017-06-23T08:01:24.536Z,26.73
2017-06-23T08:03:53.445Z,28.15
2017-06-23T08:06:22.404Z,21.73
2017-06-23T08:08:51.305Z,26.77
2017-06-23T08:11:20.196Z,28.20
2017-06-23T08:13:49.097Z,36.03
2017-06-23T08:16:17.996Z,33.03
2017-06-23T08:18:46.897Z,36.72
2017-06-23T08:21:15.801Z,44.17
2017-06-23T08:23:44.687Z,25.17
2017-06-23T08:26:13.597Z,36.88
2017-06-23T08:28:42.497Z,33.47
2017-06-23T08:31:12.168Z,42.88
2017-06-23T08:33:41.069Z,25.58
2017-06-23T08:36:09.966Z,24.67
2017-06-23T08:38:38.859Z,30.30
2017-06-23T08:41:07.768Z,31.02
2017-06-23T08:43:36.668Z,38.05
2017-06-23T08:46:05.591Z,30.17
2017-06-23T08:48:34.489Z,31.00
2017-06-23T08:51:03.383Z,28.85
2017-06-23T08:53:32.280Z,25.70
2017-06-23T08:56:01.177Z,28.00
2017-06-23T08:58:30.050Z,29.83
2017-06-23T09:00:58.939Z,32.28
2017-06-23T09:03:27.830Z,25.80
2017-06-23T09:05:56.735Z,24.10
2017-06-23T09:08:25.645Z,33.50
2017-06-23T09:10:54.557Z,26.87
2017-06-23T09:13:23.260Z,35.75
2017-06-23T09:15:52.187Z,23.10
2017-06-23T09:18:21.048Z,24.00
2017-06-23T09:20:49.977Z,20.92
2017-06-23T09:23:18.893Z,22.55
2017-06-23T09:25:47.801Z,31.80
2017-06-23T09:28:16.692Z,22.73
2017-06-23T09:30:45.594Z,22.80
2017-06-23T09:33:14.497Z,20.50
2017-06-23T09:35:43.397Z,21.58
2017-06-23T09:38:13.068Z,18.50
2017-06-23T09:40:41.968Z,21.10
2017-06-23T09:43:10.878Z,19.67
2017-06-23T09:45:40.589Z,16.62
2017-06-23T09:48:10.247Z,18.25
2017-06-23T09:50:39.143Z,16.50
2017-06-23T09:53:08.043Z,16.75
2017-06-23T09:55:36.940Z,17.00
2017-06-23T09:58:05.845Z,20.60
2017-06-23T10:00:34.745Z,14.60
2017-06-23T10:03:03.653Z,17.52
2017-06-23T10:05:32.555Z,19.08
2017-06-23T10:08:01.450Z,17.85
2017-06-23T10:10:30.350Z,16.00
2017-06-23T10:12:59.257Z,23.33
2017-06-23T10:15:28.148Z,21.85
2017-06-23T10:17:57.057Z,20.88
2017-06-23T10:20:25.976Z,23.55
2017-06-23T10:22:54.889Z,18.08
2017-06-23T10:25:23.788Z,22.13
2017-06-23T10:27:53.461Z,18.33
2017-06-23T10:30:22.331Z,22.58
2017-06-23T10:32:51.220Z,26.73
2017-06-23T10:35:20.127Z,19.62
2017-06-23T10:37:49.036Z,18.20
2017-06-23T10:40:17.937Z,21.45
2017-06-23T10:42:46.845Z,20.52
2017-06-23T10:45:15.748Z,20.15
2017-06-23T10:47:44.656Z,19.10
2017-06-23T10:50:13.565Z,16.60
2017-06-23T10:52:42.464Z,18.70
2017-06-23T10:55:11.172Z,15.63
2017-06-23T10:57:40.069Z,22.65
2017-06-23T11:00:08.981Z,22.60
2017-06-23T11:02:37.876Z,19.12
2017-06-23T11:05:06.767Z,16.98
2017-06-23T11:07:35.669Z,13.68
2017-06-23T11:10:04.380Z,20.30
2017-06-23T11:12:33.285Z,20.08
2017-06-23T11:15:02.140Z,23.38
2017-06-23T11:17:31.051Z,17.83
2017-06-23T11:19:59.957Z,16.30
2017-06-23T11:22:28.866Z,15.32
2017-06-23T11:24:57.763Z,19.25
2017-06-23T11:27:26.747Z,16.12
2017-06-23T11:29:55.647Z,12.60
2017-06-23T11:32:24.557Z,16.05
2017-06-23T11:34:53.426Z,12.93
2017-06-23T11:37:22.294Z,18.05
2017-06-23T11:39:51.217Z,15.80
2017-06-23T11:42:20.209Z,17.67
2017-06-23T11:44:49.103Z,16.25
2017-06-23T11:47:18.002Z,12.30
2017-06-23T11:49:46.892Z,12.32
2017-06-23T11:52:15.798Z,17.90
2017-06-23T11:54:44.685Z,12.95
2017-06-23T11:57:13.581Z,19.02
2017-06-23T11:59:42.485Z,19.35
2017-06-23T12:02:11.371Z,16.70
2017-06-23T12:04:40.262Z,9.57
2017-06-23T12:07:09.148Z,10.88
2017-06-23T12:09:38.053Z,14.15
2017-06-23T12:12:07.701Z,9.30
2017-06-23T12:14:36.588Z,9.50
2017-06-23T12:17:05.485Z,8.80
2017-06-23T12:19:34.385Z,10.80
2017-06-23T12:22:03.286Z,16.10
2017-06-23T12:24:32.179Z,16.48
2017-06-23T12:27:01.082Z,9.88
2017-06-23T12:29:29.980Z,15.82
2017-06-23T12:31:58.885Z,15.95
2017-06-23T12:34:27.780Z,14.43
2017-06-23T12:36:57.464Z,22.48
2017-06-23T12:39:26.361Z,22.45
2017-06-23T12:41:55.263Z,11.60
2017-06-23T12:44:24.156Z,11.40
2017-06-23T12:46:53.098Z,16.08
2017-06-23T12:49:21.990Z,11.23
2017-06-23T12:51:50.886Z,15.15
2017-06-23T12:54:19.777Z,8.75
2017-06-23T12:56:49.600Z,10.45
2017-06-23T12:59:18.457Z,9.75
2017-06-23T13:01:48.127Z,11.02
2017-06-23T13:04:17.013Z,8.48
2017-06-23T13:06:45.901Z,10.15
2017-06-23T13:09:14.801Z,10.13
2017-06-23T13:11:43.681Z,9.68
2017-06-23T13:14:12.563Z,8.60
2017-06-23T13:16:41.466Z,11.10
2017-06-23T13:19:10.389Z,15.90
2017-06-23T13:21:39.001Z,8.30
2017-06-23T13:24:07.890Z,10.57
2017-06-23T13:26:37.539Z,9.30
2017-06-23T13:29:06.924Z,12.27
2017-06-23T13:31:35.553Z,12.90
2017-06-23T13:34:04.400Z,8.52
2017-06-23T13:36:33.292Z,15.95
2017-06-23T13:39:02.194Z,13.77
2017-06-23T13:41:30.808Z,8.90
2017-06-23T13:43:59.446Z,9.33
2017-06-23T13:46:28.074Z,10.07
2017-06-23T13:48:57.415Z,13.20
2017-06-23T13:51:26.050Z,10.67
2017-06-23T13:53:55.583Z,6.43
2017-06-23T13:56:24.841Z,7.50
2017-06-23T13:58:53.460Z,7.13
2017-06-23T14:01:22.087Z,5.33
2017-06-23T14:03:50.718Z,7.83
2017-06-23T14:06:19.603Z,12.32
2017-06-23T14:08:48.510Z,8.25
2017-06-23T14:11:17.383Z,5.80
2017-06-23T14:13:46.795Z,12.30
2017-06-23T14:16:15.494Z,8.30
2017-06-23T14:18:44.118Z,7.73
2017-06-23T14:21:12.757Z,8.57
2017-06-23T14:23:42.140Z,9.33
2017-06-23T14:26:10.769Z,15.17
2017-06-23T14:28:39.405Z,11.00
2017-06-23T14:31:08.026Z,11.73
2017-06-23T14:33:36.656Z,14.47
2017-06-23T14:36:05.289Z,10.67
2017-06-23T14:38:34.634Z,8.27
2017-06-23T14:41:03.212Z,11.80
2017-06-23T14:43:31.821Z,7.17
2017-06-23T14:46:00.448Z,10.63
2017-06-23T14:48:29.342Z,6.25
2017-06-23T14:50:58.244Z,10.63
2017-06-23T14:53:27.120Z,7.75
2017-06-23T14:55:56.016Z,9.63
2017-06-23T14:58:25.397Z,10.77
2017-06-23T15:00:54.268Z,7.35
2017-06-23T15:03:23.161Z,10.85
2017-06-23T15:05:51.793Z,6.23
2017-06-23T15:08:20.416Z,6.20
2017-06-23T15:10:50.028Z,6.30
2017-06-23T15:13:19.667Z,5.68
2017-06-23T15:15:48.548Z,5.43
2017-06-23T15:18:17.178Z,9.97
2017-06-23T15:20:45.796Z,14.77
2017-06-23T15:23:14.412Z,6.83
2017-06-23T15:25:43.310Z,9.38
2017-06-23T15:28:12.207Z,10.23
2017-06-23T15:30:40.838Z,7.37
2017-06-23T15:33:09.744Z,6.22
2017-06-23T15:35:38.360Z,7.33
2017-06-23T15:38:07.214Z,5.97
2017-06-23T15:40:36.860Z,7.05
2017-06-23T15:43:05.491Z,8.60
2017-06-23T15:45:34.123Z,8.20
2017-06-23T15:48:02.740Z,7.60
2017-06-23T15:50:31.633Z,9.60
2017-06-23T15:53:00.522Z,7.87
2017-06-23T15:55:29.925Z,8.27
2017-06-23T15:57:58.812Z,7.35
2017-06-23T16:00:28.200Z,7.23
2017-06-23T16:02:57.084Z,8.00
2017-06-23T16:05:25.981Z,10.75
2017-06-23T16:07:54.884Z,10.25
2017-06-23T16:10:23.767Z,9.23
2017-06-23T16:12:52.702Z,9.50
2017-06-23T16:15:21.591Z,12.85
2017-06-23T16:17:50.474Z,8.88
2017-06-23T16:20:19.364Z,11.52
2017-06-23T16:22:48.244Z,9.20
2017-06-23T16:25:17.114Z,10.23
2017-06-23T16:27:45.996Z,11.15
2017-06-23T16:30:14.887Z,9.48
2017-06-23T16:32:43.785Z,10.63
2017-06-23T16:35:12.675Z,10.18
2017-06-23T16:37:41.554Z,9.73
2017-06-23T16:40:10.186Z,11.50
2017-06-23T16:42:39.089Z,12.73
2017-06-23T16:45:07.997Z,11.98
2017-06-23T16:47:37.677Z,13.07
2017-06-23T16:50:06.572Z,11.98
2017-06-23T16:52:35.472Z,12.18
2017-06-23T16:55:04.361Z,11.00
2017-06-23T16:57:33.259Z,9.80
2017-06-23T17:00:02.157Z,10.57
2017-06-23T17:02:31.782Z,11.45
2017-06-23T17:05:01.432Z,14.75
2017-06-23T17:07:31.278Z,10.27
2017-06-23T17:10:00.183Z,12.75
2017-06-23T17:12:29.114Z,16.87
2017-06-23T17:14:58.013Z,10.70
2017-06-23T17:17:26.915Z,13.98
2017-06-23T17:19:55.809Z,12.00
2017-06-23T17:22:24.692Z,10.65
2017-06-23T17:24:53.582Z,10.70
2017-06-23T17:27:22.489Z,11.90
2017-06-23T17:29:51.463Z,11.00
2017-06-23T17:32:20.363Z,13.98
2017-06-23T17:34:49.354Z,15.07
2017-06-23T17:37:18.323Z,13.70
2017-06-23T17:39:47.236Z,13.07
2017-06-23T17:42:16.142Z,13.65
2017-06-23T17:44:46.039Z,12.13
2017-06-23T17:47:14.940Z,15.70
2017-06-23T17:49:43.845Z,12.02
2017-06-23T17:52:12.757Z,12.98
2017-06-23T17:54:41.665Z,13.93
2017-06-23T17:57:10.576Z,17.37
2017-06-23T17:59:39.472Z,13.50
2017-06-23T18:02:08.384Z,14.20
2017-06-23T18:04:37.300Z,12.95
2017-06-23T18:07:06.205Z,14.18
2017-06-23T18:09:35.107Z,14.35
2017-06-23T18:12:04.014Z,18.67
2017-06-23T18:14:34.002Z,14.75
2017-06-23T18:17:02.911Z,15.98
2017-06-23T18:19:32.583Z,18.90
2017-06-23T18:22:01.509Z,15.55
2017-06-23T18:24:30.430Z,14.00
2017-06-23T18:27:00.162Z,15.73
2017-06-23T18:29:29.100Z,15.35
2017-06-23T18:31:57.991Z,17.73
2017-06-23T18:34:26.897Z,16.40
2017-06-23T18:36:55.801Z,15.57
2017-06-23T18:39:25.481Z,15.90
2017-06-23T18:41:56.208Z,18.00
2017-06-23T18:44:25.385Z,17.50
2017-06-23T18:46:54.298Z,17.12
2017-06-23T18:49:23.206Z,17.23
2017-06-23T18:51:52.103Z,16.98
2017-06-23T18:54:20.999Z,15.25
2017-06-23T18:56:49.917Z,19.33
2017-06-23T18:59:18.827Z,19.80
2017-06-23T19:01:47.730Z,24.85
2017-06-23T19:04:16.619Z,16.77
2017-06-23T19:06:45.519Z,20.15
2017-06-23T19:09:14.424Z,17.02
2017-06-23T19:11:43.323Z,16.70
2017-06-23T19:14:12.244Z,15.77
2017-06-23T19:16:41.162Z,21.48
2017-06-23T19:19:10.064Z,19.60
2017-06-23T19:21:38.972Z,15.50
2017-06-23T19:24:07.876Z,14.80
2017-06-23T19:26:36.773Z,17.75
2017-06-23T19:29:05.681Z,20.00
2017-06-23T19:31:34.571Z,26.77
2017-06-23T19:34:03.463Z,19.90
2017-06-23T19:36:32.410Z,16.58
2017-06-23T19:39:01.313Z,17.95
2017-06-23T19:41:30.223Z,17.73
2017-06-23T19:43:59.252Z,16.30
2017-06-23T19:46:28.152Z,20.58
2017-06-23T19:48:57.830Z,20.80
2017-06-23T19:51:26.740Z,17.90
2017-06-23T19:53:56.417Z,16.42
2017-06-23T19:56:25.312Z,19.85
2017-06-23T19:58:54.221Z,23.00
2017-06-23T20:01:23.121Z,19.30
2017-06-23T20:03:52.021Z,20.75
2017-06-23T20:06:21.659Z,18.15
2017-06-23T20:08:50.570Z,19.90
2017-06-23T20:11:19.469Z,21.65
2017-06-23T20:13:48.372Z,17.50
2017-06-23T20:16:17.281Z,22.13
2017-06-23T20:18:46.176Z,19.77
2017-06-23T20:21:15.090Z,20.17
2017-06-23T20:23:44.759Z,21.10
2017-06-23T20:26:13.662Z,18.30
2017-06-23T20:28:42.571Z,20.58
2017-06-23T20:31:11.464Z,20.35
2017-06-23T20:33:41.133Z,21.60
2017-06-23T20:36:10.033Z,27.48
2017-06-23T20:38:38.916Z,21.42
2017-06-23T20:41:07.813Z,27.62
2017-06-23T20:43:36.723Z,23.62
2017-06-23T20:46:05.634Z,25.37
2017-06-23T20:48:34.560Z,30.75
2017-06-23T20:51:03.461Z,24.75
2017-06-23T20:53:32.368Z,24.75
2017-06-23T20:56:01.250Z,22.60
2017-06-23T20:58:30.156Z,23.52
2017-06-23T21:00:59.069Z,22.37
2017-06-23T21:03:27.955Z,21.08
2017-06-23T21:05:56.852Z,22.10
2017-06-23T21:08:25.807Z,22.92
2017-06-23T21:10:54.713Z,28.30
2017-06-23T21:13:23.608Z,22.77
2017-06-23T21:15:52.519Z,23.10
2017-06-23T21:18:21.378Z,26.30
2017-06-23T21:20:50.367Z,26.87
2017-06-23T21:23:19.271Z,28.80
2017-06-23T21:25:48.168Z,25.85
2017-06-23T21:28:17.068Z,26.83
2017-06-23T21:30:45.943Z,30.92
2017-06-23T21:33:14.619Z,27.08
2017-06-23T21:35:43.724Z,27.48
2017-06-23T21:38:12.622Z,26.77
2017-06-23T21:40:52.933Z,26.35
2017-06-23T21:43:23.509Z,33.00
2017-06-23T21:45:52.404Z,28.00
2017-06-23T21:48:21.309Z,33.70
2017-06-23T21:50:50.212Z,26.75
2017-06-23T21:53:19.113Z,26.08
2017-06-23T21:55:48.058Z,29.58
2017-06-23T21:58:16.961Z,28.67
2017-06-23T22:00:45.869Z,28.12
2017-06-23T22:03:14.760Z,28.77
2017-06-23T22:05:43.664Z,39.10
2017-06-23T22:08:12.561Z,29.10
2017-06-23T22:10:41.473Z,31.60
2017-06-23T22:13:11.137Z,28.38
2017-06-23T22:15:40.043Z,28.60
2017-06-23T22:18:08.941Z,28.27
2017-06-23T22:20:37.839Z,27.70
2017-06-23T22:23:06.728Z,29.15
2017-06-23T22:25:35.619Z,29.85
2017-06-23T22:28:04.505Z,35.35
2017-06-23T22:30:33.396Z,29.70
2017-06-23T22:33:02.293Z,28.80
2017-06-23T22:35:31.162Z,29.17
2017-06-23T22:38:00.069Z,27.70
2017-06-23T22:40:28.956Z,29.27
2017-06-23T22:42:57.848Z,27.15
2017-06-23T22:45:26.754Z,27.48
2017-06-23T22:47:55.658Z,26.67
2017-06-23T22:50:24.557Z,29.15
2017-06-23T22:52:54.179Z,28.58
2017-06-23T22:55:23.845Z,29.63
2017-06-23T22:57:52.736Z,27.35
2017-06-23T23:00:21.635Z,29.37
2017-06-23T23:02:50.537Z,29.52
2017-06-23T23:05:19.793Z,25.50
2017-06-23T23:07:48.689Z,26.87
2017-06-23T23:10:17.582Z,27.58
2017-06-23T23:12:46.471Z,33.08
2017-06-23T23:15:15.523Z,32.92
2017-06-23T23:17:44.409Z,32.25
2017-06-23T23:20:13.295Z,32.00
2017-06-23T23:22:42.196Z,29.75
2017-06-23T23:25:11.087Z,28.95
2017-06-23T23:27:39.971Z,33.90
2017-06-23T23:30:08.857Z,29.27
2017-06-23T23:32:37.747Z,30.67
2017-06-23T23:35:06.644Z,30.67
2017-06-23T23:37:35.571Z,31.00
2017-06-23T23:40:04.431Z,29.92
2017-06-23T23:42:33.322Z,29.10
2017-06-23T23:45:02.212Z,29.50
2017-06-23T23:47:31.100Z,28.48
2017-06-23T23:49:59.994Z,33.35
2017-06-23T23:52:28.938Z,27.58
2017-06-23T23:54:57.828Z,27.62
2017-06-23T23:57:26.719Z,28.05
2017-06-23T23:59:55.607Z,32.17
